Time;durP1;ratioP1;P1;durP2;ratioP2;P2;SDS_P1;SDS_P2;PMS_P1;PMS_P2;Temp;Humidity;BMP_temperature;BMP_pressure;BME280_temperature;BME280_humidity;BME280_pressure;Samples;Min_cycle;Max_cycle;Signal;HPM_P1;HPM_P2
2023/03/12 00:00:45;;;;;;;8.10;5.77;;;0.20;99.90;;;;;;4970642;28;20201;-30
2023/03/12 00:03:11;;;;;;;13.53;5.57;;;0.20;99.90;;;;;;4981615;28;20246;-29
2023/03/12 00:05:38;;;;;;;10.83;5.77;;;0.20;99.90;;;;;;4968103;28;20226;-29
2023/03/12 00:08:05;;;;;;;8.10;5.33;;;0.20;99.90;;;;;;4982606;28;20189;-29
2023/03/12 00:10:31;;;;;;;10.50;5.57;;;0.30;99.90;;;;;;5006386;28;20206;-30
2023/03/12 00:12:57;;;;;;;8.63;5.03;;;0.30;99.90;;;;;;5000972;28;20235;-29
2023/03/12 00:15:23;;;;;;;11.53;5.60;;;0.30;99.90;;;;;;4963063;28;20182;-29
2023/03/12 00:17:49;;;;;;;9.67;5.53;;;0.30;99.90;;;;;;4991433;28;20190;-29
2023/03/12 00:20:15;;;;;;;8.40;5.80;;;0.30;99.90;;;;;;4977398;28;20224;-29
2023/03/12 00:22:41;;;;;;;8.63;5.20;;;0.30;99.90;;;;;;4960523;28;20177;-30
2023/03/12 00:25:11;;;;;;;9.13;4.97;;;0.20;99.90;;;;;;5001598;28;20194;-29
2023/03/12 00:27:37;;;;;;;7.27;4.90;;;0.20;99.90;;;;;;4966717;28;20185;-29
2023/03/12 00:30:04;;;;;;;7.60;5.27;;;0.20;99.90;;;;;;4988629;28;20661;-29
2023/03/12 00:35:00;;;;;;;8.20;5.23;;;0.20;99.90;;;;;;4994339;28;20325;-38
2023/03/12 00:37:26;;;;;;;8.33;5.20;;;0.10;99.90;;;;;;4995442;28;20627;-37
2023/03/12 00:39:53;;;;;;;10.10;6.00;;;0.10;99.90;;;;;;4994956;28;20165;-37
2023/03/12 00:42:19;;;;;;;8.57;5.37;;;0.10;99.90;;;;;;4975893;28;20178;-39
2023/03/12 00:44:46;;;;;;;9.50;5.73;;;0.10;99.90;;;;;;4995171;28;20209;-37
2023/03/12 00:47:12;;;;;;;9.77;6.10;;;0.00;99.90;;;;;;4949471;29;20193;-37
2023/03/12 00:49:39;;;;;;;8.50;5.37;;;0.00;99.90;;;;;;4954486;29;20211;-38
2023/03/12 00:52:05;;;;;;;7.37;5.07;;;0.00;99.90;;;;;;4970586;28;20221;-38
2023/03/12 00:54:31;;;;;;;9.60;5.03;;;-0.10;99.90;;;;;;4976279;28;20220;-37
2023/03/12 00:56:57;;;;;;;7.33;5.17;;;-0.10;99.90;;;;;;4960258;28;20178;-37
2023/03/12 00:59:23;;;;;;;6.57;4.93;;;0.00;99.90;;;;;;4957943;28;20171;-38
2023/03/12 01:01:48;;;;;;;8.33;5.67;;;0.00;99.90;;;;;;4957547;28;20188;-38
2023/03/12 01:04:16;;;;;;;8.27;5.27;;;0.00;99.90;;;;;;4964179;28;20205;-38
2023/03/12 01:06:42;;;;;;;8.00;5.03;;;0.00;99.90;;;;;;4967014;28;20248;-38
2023/03/12 01:09:09;;;;;;;9.27;5.40;;;0.00;99.90;;;;;;4983179;28;20589;-38
2023/03/12 01:11:37;;;;;;;8.47;4.97;;;0.00;99.90;;;;;;4957683;28;20190;-37
2023/03/12 01:14:05;;;;;;;10.70;4.73;;;-0.10;99.90;;;;;;4974782;28;20209;-38
2023/03/12 01:16:31;;;;;;;9.90;5.27;;;0.00;99.90;;;;;;4973121;28;20179;-38
2023/03/12 01:18:59;;;;;;;9.03;5.30;;;-0.10;99.90;;;;;;4959877;28;20186;-38
2023/03/12 01:21:26;;;;;;;9.90;5.40;;;0.00;99.90;;;;;;4965049;28;20627;-38
2023/03/12 01:23:52;;;;;;;10.20;5.93;;;0.00;99.90;;;;;;4988896;28;20292;-40
2023/03/12 01:26:18;;;;;;;7.60;5.17;;;-0.10;99.90;;;;;;4981445;28;20646;-39
2023/03/12 01:28:44;;;;;;;14.77;5.40;;;-0.20;99.90;;;;;;4992057;28;20195;-38
2023/03/12 01:31:13;;;;;;;9.53;5.80;;;-0.30;99.90;;;;;;4973403;28;20215;-42
2023/03/12 01:33:40;;;;;;;7.23;4.70;;;-0.30;99.90;;;;;;4974024;28;20229;-41
2023/03/12 01:36:25;;;;;;;14.00;6.47;;;-0.40;99.90;;;;;;4979448;28;20280;-39
2023/03/12 01:38:53;;;;;;;17.60;6.87;;;-0.40;99.90;;;;;;4964061;28;20237;-38
2023/03/12 01:41:20;;;;;;;7.20;4.80;;;-0.50;99.90;;;;;;4957099;28;20264;-38
2023/03/12 01:43:47;;;;;;;10.67;5.50;;;-0.50;99.90;;;;;;4980614;28;20247;-41
2023/03/12 01:46:29;;;;;;;9.43;5.17;;;-0.50;99.90;;;;;;4971062;28;20211;-38
2023/03/12 01:49:07;;;;;;;12.33;5.73;;;-0.60;99.90;;;;;;4972444;28;20184;-39
2023/03/12 01:51:41;;;;;;;10.33;5.00;;;-0.60;99.90;;;;;;4969491;28;20180;-39
2023/03/12 01:54:14;;;;;;;9.70;5.00;;;-0.70;99.90;;;;;;4966824;28;20212;-39
2023/03/12 01:56:41;;;;;;;9.57;5.40;;;-0.60;99.90;;;;;;4976749;28;20187;-41
2023/03/12 01:59:15;;;;;;;13.27;7.20;;;-0.50;99.90;;;;;;4984015;28;20180;-38
2023/03/12 02:01:42;;;;;;;13.50;6.80;;;-0.50;99.90;;;;;;4990156;28;20172;-38
2023/03/12 02:04:11;;;;;;;16.93;7.93;;;-0.50;99.90;;;;;;4968176;28;20550;-40
2023/03/12 02:06:48;;;;;;;14.10;6.87;;;-0.40;99.90;;;;;;4978632;28;20604;-39
2023/03/12 02:09:18;;;;;;;10.27;5.67;;;-0.30;99.90;;;;;;4958289;28;20193;-38
2023/03/12 02:11:45;;;;;;;9.57;5.20;;;-0.10;99.90;;;;;;4960740;28;20553;-40
2023/03/12 02:14:11;;;;;;;9.37;5.50;;;-0.10;99.90;;;;;;4963430;28;20267;-38
2023/03/12 02:16:37;;;;;;;8.93;5.07;;;0.00;99.90;;;;;;4975444;28;20184;-41
2023/03/12 02:19:13;;;;;;;12.90;5.83;;;0.10;99.90;;;;;;4984442;28;20181;-40
2023/03/12 02:21:39;;;;;;;7.83;5.70;;;0.10;99.90;;;;;;4971335;28;20603;-38
2023/03/12 02:24:29;;;;;;;11.20;5.30;;;0.10;99.90;;;;;;4962097;28;20214;-41
2023/03/12 02:26:56;;;;;;;9.27;5.60;;;0.20;99.90;;;;;;4957110;28;20184;-39
2023/03/12 02:29:24;;;;;;;9.13;4.80;;;0.20;99.90;;;;;;4957239;28;20190;-39
2023/03/12 02:31:53;;;;;;;8.67;5.30;;;0.30;99.90;;;;;;4955562;28;20230;-38
2023/03/12 02:34:19;;;;;;;8.97;5.63;;;0.40;99.90;;;;;;4971373;28;20214;-40
2023/03/12 02:36:47;;;;;;;12.97;6.43;;;0.40;99.90;;;;;;4965154;28;20197;-38
2023/03/12 02:39:13;;;;;;;11.13;5.33;;;0.40;99.90;;;;;;4963718;28;20596;-40
2023/03/12 02:41:52;;;;;;;9.43;5.57;;;0.40;99.90;;;;;;4960646;28;20178;-40
2023/03/12 02:44:22;;;;;;;8.90;5.30;;;0.40;99.90;;;;;;4955876;28;20297;-42
2023/03/12 02:46:52;;;;;;;8.63;5.37;;;0.40;99.90;;;;;;4957388;28;20183;-39
2023/03/12 02:49:20;;;;;;;12.07;6.53;;;0.30;99.90;;;;;;4979606;28;20181;-38
2023/03/12 02:51:47;;;;;;;19.77;9.07;;;0.30;99.90;;;;;;4955556;28;20190;-39
2023/03/12 02:54:15;;;;;;;9.13;5.20;;;0.30;99.90;;;;;;4955355;28;20213;-38
2023/03/12 02:56:41;;;;;;;6.60;4.63;;;0.20;99.90;;;;;;4965324;28;20244;-40
2023/03/12 02:59:08;;;;;;;9.43;4.80;;;0.20;99.90;;;;;;4971498;28;20178;-38
2023/03/12 03:01:38;;;;;;;9.73;5.47;;;0.20;99.90;;;;;;4961138;28;20185;-38
2023/03/12 03:04:06;;;;;;;8.53;4.87;;;0.20;99.90;;;;;;4955206;28;20198;-39
2023/03/12 03:06:34;;;;;;;9.70;5.47;;;0.30;99.90;;;;;;4958369;28;20265;-38
2023/03/12 03:09:00;;;;;;;10.67;5.70;;;0.30;99.90;;;;;;4982414;28;20197;-39
2023/03/12 03:11:26;;;;;;;8.87;5.70;;;0.40;99.90;;;;;;4955086;28;20178;-40
2023/03/12 03:13:54;;;;;;;7.97;4.83;;;0.40;99.90;;;;;;4957459;28;20315;-39
2023/03/12 03:16:22;;;;;;;10.53;5.80;;;0.50;99.90;;;;;;4968772;28;20276;-41
2023/03/12 03:18:48;;;;;;;9.17;5.80;;;0.60;99.90;;;;;;4962431;28;20662;-38
2023/03/12 03:21:17;;;;;;;9.53;5.33;;;0.60;99.90;;;;;;4955087;28;20182;-38
2023/03/12 03:23:45;;;;;;;7.23;5.30;;;0.60;99.90;;;;;;4954881;28;20730;-39
2023/03/12 03:26:12;;;;;;;8.37;5.13;;;0.70;99.90;;;;;;4953730;28;20186;-37
2023/03/12 03:28:38;;;;;;;7.73;4.50;;;0.70;99.90;;;;;;4963178;28;20181;-38
2023/03/12 03:31:05;;;;;;;6.90;4.57;;;0.70;99.90;;;;;;4955436;28;20192;-42
2023/03/12 03:33:36;;;;;;;10.43;5.20;;;0.70;99.90;;;;;;4955084;28;20213;-39
2023/03/12 03:36:05;;;;;;;7.70;4.47;;;0.70;99.90;;;;;;4971049;28;20179;-42
2023/03/12 03:38:48;;;;;;;8.03;4.57;;;0.80;99.90;;;;;;4957391;28;20182;-38
2023/03/12 03:41:18;;;;;;;7.43;4.93;;;0.80;99.90;;;;;;4962817;28;20276;-39
2023/03/12 03:43:45;;;;;;;12.33;6.43;;;0.90;99.90;;;;;;4972260;28;20218;-38
2023/03/12 03:46:13;;;;;;;33.17;14.43;;;0.80;99.90;;;;;;4954690;28;20228;-39
2023/03/12 03:48:42;;;;;;;12.73;6.87;;;0.50;99.90;;;;;;4982792;28;20185;-38
2023/03/12 03:51:12;;;;;;;12.40;6.40;;;0.30;99.90;;;;;;4984695;28;20179;-41
2023/03/12 03:53:42;;;;;;;20.23;10.07;;;0.20;99.90;;;;;;4956508;28;20248;-39
2023/03/12 03:56:11;;;;;;;19.80;9.87;;;0.00;99.90;;;;;;4959103;28;20263;-39
2023/03/12 03:58:40;;;;;;;13.20;7.80;;;-0.10;99.90;;;;;;4980448;28;20178;-39
2023/03/12 04:01:07;;;;;;;9.00;5.73;;;-0.10;99.90;;;;;;4969717;28;20190;-38
2023/03/12 04:03:34;;;;;;;10.77;5.60;;;0.00;99.90;;;;;;4976954;28;20683;-43
2023/03/12 04:06:03;;;;;;;9.43;5.23;;;0.10;99.90;;;;;;4965635;28;20182;-38
2023/03/12 04:08:31;;;;;;;9.73;5.47;;;0.10;99.90;;;;;;4985869;28;20272;-39
2023/03/12 04:10:57;;;;;;;9.37;5.50;;;0.20;99.90;;;;;;4969914;28;20193;-40
2023/03/12 04:13:23;;;;;;;9.80;5.50;;;0.20;99.90;;;;;;4990557;28;20216;-41
2023/03/12 04:15:52;;;;;;;8.23;5.23;;;0.30;99.90;;;;;;4959612;28;20189;-40
2023/03/12 04:18:19;;;;;;;10.47;5.30;;;0.40;99.90;;;;;;4963665;28;20181;-39
2023/03/12 04:20:45;;;;;;;7.53;4.90;;;0.40;99.90;;;;;;4983550;28;20209;-38
2023/03/12 04:23:11;;;;;;;7.57;4.67;;;0.50;99.90;;;;;;4957950;28;20199;-40
2023/03/12 04:25:38;;;;;;;7.40;5.00;;;0.60;99.90;;;;;;4974371;28;20234;-38
2023/03/12 04:28:04;;;;;;;7.63;4.87;;;0.60;99.90;;;;;;4962371;28;20200;-44
2023/03/12 04:30:30;;;;;;;8.37;5.53;;;0.70;99.90;;;;;;4986615;28;20182;-38
2023/03/12 04:32:56;;;;;;;8.30;5.27;;;0.70;99.90;;;;;;4957087;28;20206;-38
2023/03/12 04:35:23;;;;;;;6.83;5.13;;;0.80;99.90;;;;;;4989657;28;20186;-38
2023/03/12 04:37:50;;;;;;;6.93;4.63;;;0.80;99.90;;;;;;4984495;28;20184;-40
2023/03/12 04:40:18;;;;;;;10.10;5.40;;;0.90;99.90;;;;;;4964069;28;20196;-38
2023/03/12 04:42:44;;;;;;;8.97;5.33;;;0.90;99.90;;;;;;4973665;28;20266;-38
2023/03/12 04:45:11;;;;;;;9.40;5.13;;;0.90;99.90;;;;;;4973566;28;20193;-38
2023/03/12 04:47:40;;;;;;;11.27;5.63;;;0.90;99.90;;;;;;4973008;28;20175;-40
2023/03/12 04:50:07;;;;;;;9.83;5.83;;;1.00;99.90;;;;;;4966962;28;20225;-38
2023/03/12 04:52:34;;;;;;;8.27;5.47;;;1.00;99.90;;;;;;4976232;28;20187;-38
2023/03/12 04:55:01;;;;;;;10.63;5.80;;;1.00;99.90;;;;;;4973706;28;20234;-40
2023/03/12 04:57:26;;;;;;;11.67;5.73;;;1.00;99.90;;;;;;4972816;28;20183;-39
2023/03/12 04:59:53;;;;;;;9.30;5.57;;;1.00;99.90;;;;;;4966630;28;20186;-38
2023/03/12 05:02:19;;;;;;;8.23;5.07;;;1.00;99.90;;;;;;4977957;28;20201;-38
2023/03/12 05:04:46;;;;;;;9.17;5.13;;;1.00;99.90;;;;;;4957056;28;20212;-40
2023/03/12 05:07:11;;;;;;;8.03;5.27;;;1.00;99.90;;;;;;4973536;28;20682;-39
2023/03/12 05:09:37;;;;;;;9.20;6.03;;;1.10;99.90;;;;;;4978717;28;20283;-39
2023/03/12 05:12:05;;;;;;;7.43;4.73;;;1.10;99.90;;;;;;4985441;28;20230;-38
2023/03/12 05:14:31;;;;;;;8.43;5.07;;;1.10;99.90;;;;;;4972634;28;20217;-40
2023/03/12 05:16:57;;;;;;;12.23;5.50;;;1.10;99.90;;;;;;4959557;28;20187;-39
2023/03/12 05:19:23;;;;;;;7.90;5.23;;;1.10;99.90;;;;;;4977217;28;20518;-38
2023/03/12 05:21:49;;;;;;;8.27;5.73;;;1.10;99.90;;;;;;4984343;28;20185;-38
2023/03/12 05:24:15;;;;;;;9.63;5.83;;;1.10;99.90;;;;;;4975939;28;20230;-39
2023/03/12 05:26:42;;;;;;;9.70;5.83;;;1.10;99.90;;;;;;4974336;28;20268;-38
2023/03/12 05:29:14;;;;;;;9.50;5.80;;;1.20;99.90;;;;;;4964333;28;20178;-38
2023/03/12 05:31:40;;;;;;;12.63;6.83;;;1.20;99.90;;;;;;4964948;28;20175;-38
2023/03/12 05:34:09;;;;;;;10.60;5.63;;;1.20;99.90;;;;;;4962556;28;20301;-41
2023/03/12 05:36:37;;;;;;;9.27;5.87;;;1.20;99.90;;;;;;4956826;28;20185;-38
2023/03/12 05:39:04;;;;;;;8.73;5.20;;;1.20;99.90;;;;;;4971603;28;20178;-38
2023/03/12 05:41:32;;;;;;;7.57;5.30;;;1.20;99.90;;;;;;4972245;28;20186;-39
2023/03/12 05:44:04;;;;;;;7.90;5.50;;;1.20;99.90;;;;;;4956362;28;20250;-38
2023/03/12 05:46:30;;;;;;;9.50;6.27;;;1.20;99.90;;;;;;4972904;28;20583;-38
2023/03/12 05:48:57;;;;;;;12.53;6.07;;;1.20;99.90;;;;;;4955458;28;20178;-38
2023/03/12 05:51:24;;;;;;;9.97;5.97;;;1.10;99.90;;;;;;4962430;28;20196;-38
2023/03/12 05:53:50;;;;;;;10.87;5.80;;;1.10;99.90;;;;;;4957172;28;20215;-38
2023/03/12 05:56:17;;;;;;;8.20;5.53;;;1.10;99.90;;;;;;4966872;28;20194;-38
2023/03/12 05:58:43;;;;;;;9.37;5.33;;;1.10;99.90;;;;;;4977360;28;20234;-40
2023/03/12 06:01:18;;;;;;;9.37;5.43;;;1.10;99.90;;;;;;4979813;28;20278;-38
2023/03/12 06:03:45;;;;;;;8.70;5.43;;;1.10;99.90;;;;;;4978866;28;20190;-38
2023/03/12 06:06:12;;;;;;;7.27;5.37;;;1.10;99.90;;;;;;4972294;28;20203;-40
2023/03/12 06:08:39;;;;;;;8.10;5.13;;;1.20;99.90;;;;;;4986039;28;20191;-38
2023/03/12 06:11:05;;;;;;;8.57;5.93;;;1.20;99.90;;;;;;4976260;28;20196;-38
2023/03/12 06:13:32;;;;;;;6.37;5.47;;;1.20;99.90;;;;;;4976376;28;20266;-38
2023/03/12 06:16:11;;;;;;;8.47;5.20;;;1.30;99.90;;;;;;4955745;28;20183;-43
2023/03/12 06:18:37;;;;;;;8.30;5.40;;;1.30;99.90;;;;;;4956969;28;20180;-38
2023/03/12 06:21:14;;;;;;;9.93;5.40;;;1.40;99.90;;;;;;4961313;28;20198;-36
2023/03/12 06:23:40;;;;;;;7.07;5.47;;;1.40;99.90;;;;;;4948606;28;20218;-37
2023/03/12 06:26:10;;;;;;;8.23;5.73;;;1.50;99.90;;;;;;4964734;28;20191;-37
2023/03/12 06:28:36;;;;;;;8.07;5.33;;;1.50;99.90;;;;;;4966917;28;20211;-37
2023/03/12 06:31:03;;;;;;;10.00;5.93;;;1.60;99.90;;;;;;4955425;28;20255;-37
2023/03/12 06:33:29;;;;;;;9.33;5.73;;;1.60;99.90;;;;;;4972371;28;20215;-37
2023/03/12 06:35:56;;;;;;;7.93;5.57;;;1.60;99.90;;;;;;4974957;28;20192;-37
2023/03/12 06:38:24;;;;;;;11.80;5.73;;;1.60;99.90;;;;;;4971261;28;20179;-37
2023/03/12 06:40:59;;;;;;;7.23;5.27;;;1.60;99.90;;;;;;4963855;28;20307;-38
2023/03/12 06:43:27;;;;;;;8.13;5.73;;;1.50;99.90;;;;;;4956561;28;20203;-39
2023/03/12 06:45:55;;;;;;;9.93;6.00;;;1.60;99.90;;;;;;4971585;28;20184;-37
2023/03/12 06:48:22;;;;;;;11.60;5.80;;;1.60;99.90;;;;;;4972769;28;20238;-37
2023/03/12 06:50:48;;;;;;;8.90;5.90;;;1.60;99.90;;;;;;4972076;28;20261;-40
2023/03/12 06:53:15;;;;;;;11.23;7.10;;;1.60;99.90;;;;;;4974792;28;20218;-37
2023/03/12 06:55:42;;;;;;;13.33;7.40;;;1.60;99.90;;;;;;4958429;28;20192;-37
2023/03/12 06:58:08;;;;;;;9.30;6.13;;;1.70;99.90;;;;;;4958919;28;20184;-37
2023/03/12 07:00:34;;;;;;;10.83;6.90;;;1.70;99.90;;;;;;4959072;28;20184;-38
2023/03/12 07:03:01;;;;;;;8.67;6.97;;;1.80;99.90;;;;;;4974993;28;20199;-37
2023/03/12 07:05:27;;;;;;;7.33;5.50;;;1.80;99.90;;;;;;4958645;28;20307;-37
2023/03/12 07:07:53;;;;;;;9.47;5.50;;;1.80;99.90;;;;;;4970680;28;20192;-37
2023/03/12 07:10:20;;;;;;;9.77;5.97;;;1.80;99.90;;;;;;4970853;28;20191;-37
2023/03/12 07:12:46;;;;;;;10.17;5.73;;;1.80;99.90;;;;;;4985692;28;20199;-37
2023/03/12 07:15:13;;;;;;;13.73;7.60;;;1.80;99.90;;;;;;4967190;28;20216;-37
2023/03/12 07:17:40;;;;;;;11.37;7.30;;;1.80;99.90;;;;;;4977504;28;20179;-36
2023/03/12 07:20:07;;;;;;;10.80;6.87;;;1.80;99.90;;;;;;4963015;28;20187;-37
2023/03/12 07:22:36;;;;;;;8.60;6.17;;;1.80;99.90;;;;;;4980949;28;20187;-38
2023/03/12 07:25:02;;;;;;;10.30;6.57;;;1.80;99.90;;;;;;4978540;28;20216;-37
2023/03/12 07:27:28;;;;;;;9.07;6.30;;;1.80;99.90;;;;;;4972277;28;20179;-39
2023/03/12 07:29:53;;;;;;;8.97;5.90;;;1.80;99.90;;;;;;4970822;28;20195;-38
2023/03/12 07:32:19;;;;;;;7.97;6.20;;;1.90;99.90;;;;;;4979636;28;20242;-37
2023/03/12 07:34:45;;;;;;;11.13;6.03;;;1.90;99.90;;;;;;4961249;28;20257;-38
2023/03/12 07:37:11;;;;;;;8.63;6.00;;;1.90;99.90;;;;;;4980153;28;20215;-37
2023/03/12 07:39:37;;;;;;;8.30;5.87;;;1.90;99.90;;;;;;4955889;28;20191;-39
2023/03/12 07:42:03;;;;;;;9.00;5.93;;;1.90;99.90;;;;;;4979144;28;20220;-37
2023/03/12 07:44:31;;;;;;;7.07;5.50;;;2.00;99.90;;;;;;4954901;28;20280;-37
2023/03/12 07:46:56;;;;;;;10.93;6.47;;;2.10;99.90;;;;;;4954964;28;20266;-37
2023/03/12 07:49:22;;;;;;;12.27;7.17;;;2.10;99.90;;;;;;4954542;28;20605;-37
2023/03/12 07:51:49;;;;;;;21.17;7.37;;;2.20;99.90;;;;;;4957157;28;20653;-40
2023/03/12 07:54:15;;;;;;;10.77;7.80;;;2.30;99.90;;;;;;4970708;28;20208;-37
2023/03/12 07:56:41;;;;;;;12.43;9.00;;;2.40;99.90;;;;;;4963399;28;20271;-39
2023/03/12 07:59:06;;;;;;;11.00;8.43;;;2.50;99.90;;;;;;4977482;28;20287;-37
2023/03/12 08:01:32;;;;;;;11.83;7.33;;;2.70;99.90;;;;;;4978008;28;20187;-37
2023/03/12 08:03:58;;;;;;;10.03;6.60;;;2.70;99.90;;;;;;4983210;28;20196;-37
2023/03/12 08:06:25;;;;;;;10.13;6.50;;;2.80;99.90;;;;;;4970839;28;20189;-38
2023/03/12 08:08:51;;;;;;;8.30;5.87;;;2.90;99.90;;;;;;4978516;28;20180;-37
2023/03/12 08:11:17;;;;;;;12.77;6.50;;;2.90;99.90;;;;;;4983476;28;20207;-37
2023/03/12 08:13:43;;;;;;;8.00;5.70;;;3.00;99.90;;;;;;4970203;28;20208;-37
2023/03/12 08:16:09;;;;;;;8.47;5.33;;;3.00;99.90;;;;;;4969796;28;20195;-38
2023/03/12 08:18:34;;;;;;;9.67;5.80;;;3.10;99.90;;;;;;4971842;28;20176;-37
2023/03/12 08:21:00;;;;;;;7.43;5.20;;;3.20;99.90;;;;;;4954595;28;20172;-37
2023/03/12 08:23:26;;;;;;;11.43;5.63;;;3.20;99.90;;;;;;4970393;28;20231;-38
2023/03/12 08:25:53;;;;;;;7.83;5.40;;;3.30;99.90;;;;;;4977329;28;20191;-38
2023/03/12 08:28:20;;;;;;;9.10;5.97;;;3.40;99.90;;;;;;4972834;28;20244;-40
2023/03/12 08:30:51;;;;;;;7.40;5.33;;;3.50;99.90;;;;;;4960425;28;20589;-38
2023/03/12 08:33:17;;;;;;;9.50;4.73;;;3.60;99.90;;;;;;4960973;28;20239;-39
2023/03/12 08:35:43;;;;;;;10.07;6.00;;;3.70;99.90;;;;;;4981051;28;20203;-38
2023/03/12 08:38:09;;;;;;;9.50;5.90;;;3.70;99.90;;;;;;4975510;28;20184;-42
2023/03/12 08:40:35;;;;;;;10.13;6.87;;;3.80;99.90;;;;;;4957011;28;20184;-39
2023/03/12 08:43:01;;;;;;;12.03;6.87;;;3.90;99.90;;;;;;4965276;28;20201;-40
2023/03/12 08:45:27;;;;;;;8.87;6.10;;;3.80;99.90;;;;;;4961275;28;20195;-38
2023/03/12 08:47:53;;;;;;;7.80;5.70;;;4.00;99.90;;;;;;4968289;28;20181;-41
2023/03/12 08:50:21;;;;;;;10.37;6.63;;;3.80;99.90;;;;;;4989975;28;20199;-40
2023/03/12 08:52:47;;;;;;;20.07;11.80;;;3.90;99.90;;;;;;4979376;28;20619;-40
2023/03/12 08:55:13;;;;;;;13.40;7.27;;;3.90;99.90;;;;;;4960200;28;20208;-42
2023/03/12 08:57:39;;;;;;;9.20;6.83;;;4.00;99.90;;;;;;4977581;28;20176;-45
2023/03/12 09:00:10;;;;;;;14.17;7.63;;;4.10;99.90;;;;;;4982710;28;20650;-38
2023/03/12 09:02:37;;;;;;;13.67;7.63;;;4.20;99.90;;;;;;4982102;28;20185;-43
2023/03/12 09:05:06;;;;;;;14.00;8.37;;;4.40;99.90;;;;;;4984840;28;20180;-39
2023/03/12 09:07:33;;;;;;;11.20;7.50;;;4.50;99.90;;;;;;4982137;28;20184;-41
2023/03/12 09:09:59;;;;;;;10.23;7.63;;;4.60;99.90;;;;;;4982380;28;20181;-38
2023/03/12 09:12:27;;;;;;;8.77;7.33;;;4.70;99.90;;;;;;4979826;28;20196;-44
2023/03/12 09:14:55;;;;;;;9.80;7.63;;;4.90;99.90;;;;;;4983881;28;20205;-40
2023/03/12 09:17:26;;;;;;;11.63;8.03;;;5.10;99.90;;;;;;4975239;28;20205;-40
2023/03/12 09:19:54;;;;;;;11.23;7.00;;;5.30;99.90;;;;;;4973207;28;20213;-42
2023/03/12 09:22:21;;;;;;;11.60;7.47;;;5.50;99.90;;;;;;4957893;28;20190;-41
2023/03/12 09:24:48;;;;;;;11.10;7.23;;;5.70;99.90;;;;;;4956095;28;20210;-42
2023/03/12 09:27:15;;;;;;;7.77;6.63;;;6.00;99.90;;;;;;4972863;28;20213;-42
2023/03/12 09:29:42;;;;;;;10.33;7.37;;;6.20;99.90;;;;;;4974115;28;20183;-41
2023/03/12 09:32:14;;;;;;;8.77;6.73;;;6.40;99.90;;;;;;4974750;28;20214;-41
2023/03/12 09:34:41;;;;;;;8.43;7.03;;;6.50;99.90;;;;;;4953898;28;20248;-41
2023/03/12 09:37:07;;;;;;;11.23;7.40;;;6.60;99.90;;;;;;4972066;28;20219;-41
2023/03/12 09:39:34;;;;;;;10.23;8.10;;;6.80;99.90;;;;;;4971760;28;20251;-43
2023/03/12 09:42:05;;;;;;;14.07;9.40;;;6.90;99.90;;;;;;4956848;28;20187;-43
2023/03/12 09:44:38;;;;;;;10.77;7.73;;;7.10;99.90;;;;;;4954703;28;20262;-41
2023/03/12 09:47:13;;;;;;;10.80;8.37;;;7.20;99.90;;;;;;4965804;28;20274;-39
2023/03/12 09:49:53;;;;;;;13.50;7.90;;;7.40;99.90;;;;;;4968031;28;20191;-41
2023/03/12 09:52:39;;;;;;;14.20;7.17;;;7.50;99.90;;;;;;4954556;28;20195;-40
2023/03/12 09:55:15;;;;;;;9.90;7.13;;;7.70;99.90;;;;;;4969845;28;20275;-40
2023/03/12 09:57:43;;;;;;;9.70;7.20;;;8.00;99.90;;;;;;4970658;28;20179;-41
2023/03/12 10:00:15;;;;;;;8.87;6.57;;;8.20;99.90;;;;;;4954693;28;20185;-39
2023/03/12 10:02:57;;;;;;;8.43;6.03;;;8.30;99.90;;;;;;4984203;28;20235;-40
2023/03/12 10:05:27;;;;;;;3.13;2.70;;;8.40;99.90;;;;;;4978407;28;20183;-42
2023/03/12 10:08:07;;;;;;;7.27;3.20;;;8.70;99.90;;;;;;4977887;28;20215;-41
2023/03/12 10:10:55;;;;;;;3.13;2.27;;;8.90;99.90;;;;;;4997366;28;20176;-42
2023/03/12 10:13:29;;;;;;;3.27;2.00;;;9.10;99.90;;;;;;4977709;28;20267;-43
2023/03/12 10:16:14;;;;;;;4.43;1.77;;;9.20;99.90;;;;;;4992533;28;20252;-40
2023/03/12 10:18:58;;;;;;;3.77;1.87;;;9.30;99.90;;;;;;4995208;28;20511;-38
2023/03/12 10:21:31;;;;;;;3.37;2.67;;;9.30;99.90;;;;;;4956233;28;20187;-41
2023/03/12 10:24:12;;;;;;;4.70;2.60;;;9.40;99.90;;;;;;4976858;28;20294;-39
2023/03/12 10:26:49;;;;;;;4.20;1.57;;;9.40;99.90;;;;;;4987031;28;20195;-39
2023/03/12 10:29:33;;;;;;;4.10;1.90;;;9.50;99.90;;;;;;4960954;28;20197;-40
2023/03/12 10:32:06;;;;;;;4.17;1.40;;;9.50;99.90;;;;;;4978628;28;20188;-40
2023/03/12 10:34:32;;;;;;;3.07;1.50;;;9.60;99.90;;;;;;4982930;28;20205;-40
2023/03/12 10:37:03;;;;;;;5.23;1.53;;;9.60;99.90;;;;;;4964027;28;20191;-41
2023/03/12 10:39:29;;;;;;;3.63;1.40;;;9.60;99.90;;;;;;4964104;28;20179;-38
2023/03/12 10:42:00;;;;;;;2.73;1.63;;;9.70;99.90;;;;;;4961426;28;20172;-39
2023/03/12 10:44:27;;;;;;;5.87;2.20;;;9.70;99.90;;;;;;4960543;28;20203;-41
2023/03/12 10:47:16;;;;;;;2.53;1.40;;;9.80;99.90;;;;;;4978572;28;20173;-40
2023/03/12 10:49:45;;;;;;;3.50;1.40;;;9.90;99.90;;;;;;4957461;28;20224;-39
2023/03/12 10:52:17;;;;;;;5.40;1.80;;;9.90;99.90;;;;;;4955494;28;20188;-38
2023/03/12 10:54:46;;;;;;;5.33;1.37;;;9.90;99.90;;;;;;4955259;28;20289;-37
2023/03/12 10:57:14;;;;;;;3.60;2.13;;;9.90;99.90;;;;;;4978086;28;20180;-40
2023/03/12 10:59:44;;;;;;;6.07;2.43;;;10.00;99.90;;;;;;4980030;28;20226;-41
2023/03/12 11:02:31;;;;;;;3.87;1.87;;;10.10;99.90;;;;;;4978440;28;20204;-38
2023/03/12 11:04:59;;;;;;;4.50;1.60;;;10.40;99.90;;;;;;4954171;28;20257;-40
2023/03/12 11:07:34;;;;;;;4.07;1.70;;;10.70;99.90;;;;;;4971184;28;20216;-39
2023/03/12 11:10:06;;;;;;;5.93;2.03;;;10.80;99.90;;;;;;4970203;28;20653;-40
2023/03/12 11:12:34;;;;;;;6.10;2.10;;;11.00;99.90;;;;;;4972559;28;20177;-39
2023/03/12 11:15:20;;;;;;;4.80;1.47;;;11.00;99.90;;;;;;4954811;28;20204;-40
2023/03/12 11:17:47;;;;;;;5.27;1.90;;;11.00;99.90;;;;;;4972760;28;20181;-41
2023/03/12 11:20:27;;;;;;;7.33;1.80;;;10.90;99.90;;;;;;4954689;28;20214;-40
2023/03/12 11:22:53;;;;;;;4.13;1.90;;;10.80;99.90;;;;;;4955095;28;20199;-39
2023/03/12 11:25:28;;;;;;;7.90;2.10;;;10.60;99.90;;;;;;4956801;28;20171;-41
2023/03/12 11:28:01;;;;;;;6.27;1.77;;;10.60;99.90;;;;;;4951885;28;20176;-39
2023/03/12 11:30:38;;;;;;;3.17;1.77;;;10.60;99.90;;;;;;4972612;28;20185;-41
2023/03/12 11:33:07;;;;;;;5.00;1.77;;;10.70;99.90;;;;;;4957150;28;20219;-41
2023/03/12 11:36:14;;;;;;;4.90;1.80;;;10.70;99.90;;;;;;4967305;28;20203;-39
2023/03/12 11:38:50;;;;;;;2.40;1.27;;;10.70;99.90;;;;;;4980599;28;20192;-40
2023/03/12 11:41:51;;;;;;;4.00;1.80;;;10.90;99.90;;;;;;4981207;28;20181;-39
2023/03/12 11:44:30;;;;;;;3.77;1.60;;;11.00;99.90;;;;;;4963861;28;20231;-39
2023/03/12 11:47:17;;;;;;;4.17;1.70;;;11.10;99.90;;;;;;4978405;28;20256;-40
2023/03/12 11:49:55;;;;;;;4.87;1.63;;;11.20;99.90;;;;;;4989563;28;20182;-39
2023/03/12 11:52:27;;;;;;;4.97;2.07;;;11.20;99.90;;;;;;4980326;28;20181;-40
2023/03/12 11:55:17;;;;;;;4.97;1.80;;;11.20;99.90;;;;;;4981393;28;20215;-40
2023/03/12 11:58:05;;;;;;;3.77;1.60;;;11.30;99.90;;;;;;4978303;28;20179;-42
2023/03/12 12:00:46;;;;;;;5.90;1.73;;;11.30;99.90;;;;;;4978470;28;20189;-38
2023/03/12 12:03:50;;;;;;;4.93;1.90;;;11.20;99.90;;;;;;4979205;28;20281;-40
2023/03/12 12:06:21;;;;;;;5.13;1.87;;;11.10;99.90;;;;;;4977553;28;20181;-39
2023/03/12 12:09:05;;;;;;;3.30;1.63;;;11.10;99.90;;;;;;4956057;28;20207;-39
2023/03/12 12:11:51;;;;;;;5.37;1.70;;;11.00;99.90;;;;;;4967834;28;20192;-38
2023/03/12 12:14:38;;;;;;;6.43;1.60;;;11.10;99.90;;;;;;4970537;28;20263;-40
2023/03/12 12:17:20;;;;;;;3.77;1.30;;;11.30;99.90;;;;;;4974755;28;20186;-41
2023/03/12 12:20:15;;;;;;;6.27;1.67;;;11.70;99.90;;;;;;4973520;28;20226;-37
2023/03/12 12:22:41;;;;;;;5.67;1.63;;;11.90;99.90;;;;;;4951187;28;20192;-35
2023/03/12 12:25:19;;;;;;;5.33;1.30;;;12.10;99.90;;;;;;4957372;28;20245;-35
2023/03/12 12:28:02;;;;;;;3.33;1.53;;;12.20;99.90;;;;;;4957910;28;20186;-35
2023/03/12 12:30:53;;;;;;;7.27;1.83;;;12.30;99.90;;;;;;4971329;28;20198;-37
2023/03/12 12:36:02;;;;;;;4.70;1.53;;;12.30;99.90;;;;;;5055797;23;20229;-30
2023/03/12 12:38:42;;;;;;;5.60;1.73;;;12.30;99.90;;;;;;5032883;28;20180;-30
2023/03/12 12:41:22;;;;;;;3.77;1.60;;;12.40;99.90;;;;;;5052510;28;20193;-31
2023/03/12 12:44:08;;;;;;;5.70;1.90;;;12.30;99.90;;;;;;5036829;28;20219;-31
2023/03/12 12:46:58;;;;;;;8.70;2.63;;;12.20;99.90;;;;;;5048784;28;20195;-30
2023/03/12 12:49:33;;;;;;;5.30;2.10;;;12.40;99.90;;;;;;5034775;28;20179;-32
2023/03/12 12:52:07;;;;;;;4.60;1.40;;;12.60;99.90;;;;;;5048410;28;20196;-29
2023/03/12 12:54:58;;;;;;;6.03;1.97;;;12.70;99.90;;;;;;5048773;28;20244;-32
2023/03/12 12:57:24;;;;;;;5.93;2.07;;;12.60;99.90;;;;;;5051335;28;20181;-31
2023/03/12 13:00:11;;;;;;;4.47;1.97;;;12.70;99.90;;;;;;5039010;28;20184;-32
2023/03/12 13:02:41;;;;;;;6.10;1.77;;;12.80;99.90;;;;;;5050113;28;20181;-30
2023/03/12 13:05:45;;;;;;;7.53;2.33;;;12.90;99.90;;;;;;5039924;28;20205;-32
2023/03/12 13:08:31;;;;;;;3.43;1.87;;;13.00;99.90;;;;;;5041061;28;20216;-31
2023/03/12 13:11:05;;;;;;;4.13;1.73;;;13.20;99.90;;;;;;5036439;28;20189;-33